Terminal Aerodrome Forecast
Issued by NWS Quad Cities IA IL

Home | Current Version | Previous Version | Text Only | Print | Product List | Glossary On
Versions: 1 2 3 4 5 6 7 8 9 10 11 12 13 14 15 16 17 18 19 20 21
969
FTUS43 KDVN 122326
TAFMLI
TAF
KMLI 122326Z 1300/1324 24006KT P6SM OVC080
     FM131000 20011KT P6SM SCT200
     FM131600 28015G22KT P6SM OVC050
     FM131800 31020G30KT P6SM OVC040=

USA.gov is the U.S. government's official web portal to all federal, state and local government web resources and services.